Lorentz, West Virginia
Current Conditions -  °F | °C
As of 5:55 PM on Tuesday 27 Jan 2015 (Local Time) from KW22 Reporting Station
Light Snow Light Snow  
Wind Chill: 19°   Ceiling: 3400
Heat Index: 19°   Visibility: 4mi
Dew Point: 14°   Wind: 0mph
Humidity: 80%   Direction: NA
Pressure: 30.01"   Gusts: NA
Location:  39.01°N, 80.3°W
Report Text: KW22 272255Z AUTO 00000KT 4SM -SN SCT020 OVC034 M07/M10 A3001 RMK AO2
Loading
Personal Weather Stations






























Interactive Weather Map New forecast layout! Learn more

10-Day Weather Forecast

Advertisements
Track Severe Weather on mobile